Time;durP1;ratioP1;P1;durP2;ratioP2;P2;SDS_P1;SDS_P2;PMS_P1;PMS_P2;Temp;Humidity;BMP_temperature;BMP_pressure;BME280_temperature;BME280_humidity;BME280_pressure;Samples;Min_cycle;Max_cycle;Signal;HPM_P1;HPM_P2
2023/12/20 00:05:22;;;;;;;9.65;4.18;;;;;;;11.43;100.00;101664.41;10584945;27;20047;-83
2023/12/20 00:10:46;;;;;;;8.93;3.03;;;;;;;11.25;100.00;101669.22;10585584;27;20467;-83
2023/12/20 00:16:11;;;;;;;8.52;3.40;;;;;;;11.12;100.00;101658.31;10624557;27;20043;-83
2023/12/20 00:21:37;;;;;;;6.78;2.95;;;;;;;10.95;100.00;101659.59;10577086;28;20048;-83
2023/12/20 00:27:01;;;;;;;6.88;3.42;;;;;;;10.82;100.00;101657.47;10599774;27;20047;-83
2023/12/20 00:32:25;;;;;;;5.95;3.00;;;;;;;10.85;100.00;101640.78;10579386;27;20553;-84
2023/12/20 00:37:49;;;;;;;6.55;3.75;;;;;;;10.68;100.00;101637.66;10585051;27;20100;-83
2023/12/20 00:43:14;;;;;;;7.10;3.60;;;;;;;10.66;100.00;101615.59;10580896;27;20138;-82
2023/12/20 00:48:36;;;;;;;10.18;3.80;;;;;;;10.73;100.00;101601.72;10592869;27;20463;-82
2023/12/20 00:54:00;;;;;;;7.70;3.58;;;;;;;10.66;100.00;101597.09;10563851;27;20040;-83
2023/12/20 00:59:22;;;;;;;18.08;7.63;;;;;;;10.72;100.00;101592.00;10587608;27;20413;-86
2023/12/20 01:04:45;;;;;;;11.57;4.40;;;;;;;10.72;100.00;101584.97;10569946;27;20052;-83
2023/12/20 01:10:09;;;;;;;9.57;4.93;;;;;;;10.82;100.00;101579.97;10580176;27;20043;-82
2023/12/20 01:15:32;;;;;;;17.45;8.15;;;;;;;11.11;100.00;101582.53;10589504;27;20051;-83
2023/12/20 01:20:54;;;;;;;9.05;5.20;;;;;;;11.44;100.00;101581.59;10564721;28;20504;-83
2023/12/20 01:26:18;;;;;;;10.52;5.07;;;;;;;11.48;100.00;101583.50;10587398;27;20043;-85
2023/12/20 01:31:40;;;;;;;10.63;5.18;;;;;;;11.57;100.00;101586.34;10589323;27;20574;-85
2023/12/20 01:37:04;;;;;;;8.00;5.15;;;;;;;11.60;100.00;101565.28;10572926;27;20055;-85
2023/12/20 01:42:27;;;;;;;6.78;4.40;;;;;;;11.58;100.00;101559.94;10573076;27;20062;-85
2023/12/20 01:47:50;;;;;;;7.53;4.68;;;;;;;11.61;100.00;101539.72;10563101;28;20108;-85
2023/12/20 01:53:14;;;;;;;10.25;5.65;;;;;;;11.65;100.00;101518.66;10582550;28;20096;-85
2023/12/20 01:58:40;;;;;;;7.75;4.75;;;;;;;11.36;100.00;101517.97;10571701;28;20043;-85
2023/12/20 02:04:03;;;;;;;21.95;16.65;;;;;;;11.18;100.00;101510.47;10570134;28;20078;-84
2023/12/20 02:09:26;;;;;;;16.08;11.82;;;;;;;11.02;100.00;101508.31;10578220;28;20050;-80
2023/12/20 02:14:50;;;;;;;5.68;4.00;;;;;;;10.69;100.00;101495.13;10560054;28;20062;-81
2023/12/20 02:20:12;;;;;;;8.35;4.53;;;;;;;10.60;100.00;101492.22;10575586;27;20043;-80
2023/12/20 02:25:37;;;;;;;7.47;4.20;;;;;;;10.57;100.00;101486.84;10580629;27;20488;-80
2023/12/20 02:30:59;;;;;;;9.50;3.90;;;;;;;10.66;100.00;101499.41;10603286;27;20522;-82
2023/12/20 02:36:22;;;;;;;7.78;3.53;;;;;;;10.75;100.00;101497.03;10585165;27;20139;-82
2023/12/20 02:41:46;;;;;;;5.85;3.60;;;;;;;10.87;100.00;101507.91;10574865;27;20104;-81
2023/12/20 02:47:09;;;;;;;7.75;4.82;;;;;;;10.76;100.00;101502.31;10577547;27;20043;-81
2023/12/20 02:52:31;;;;;;;6.05;3.15;;;;;;;10.55;100.00;101491.22;10580258;27;20613;-81
2023/12/20 02:57:56;;;;;;;8.98;6.00;;;;;;;10.50;100.00;101495.44;10558686;27;20142;-82
2023/12/20 03:03:19;;;;;;;5.45;3.58;;;;;;;10.35;100.00;101489.75;10603808;27;20139;-79
2023/12/20 03:08:41;;;;;;;7.25;4.30;;;;;;;10.19;100.00;101488.44;10586263;27;20063;-82
2023/12/20 03:14:05;;;;;;;5.50;3.10;;;;;;;10.13;100.00;101489.97;10577265;27;20111;-81
2023/12/20 03:19:29;;;;;;;7.22;4.40;;;;;;;10.15;100.00;101486.53;10570084;27;20065;-81
2023/12/20 03:24:51;;;;;;;6.50;3.97;;;;;;;10.29;100.00;101487.84;10602274;27;20143;-81
2023/12/20 03:30:15;;;;;;;12.68;7.70;;;;;;;10.34;100.00;101486.22;10604869;27;20043;-80
2023/12/20 03:35:38;;;;;;;7.25;4.70;;;;;;;10.41;100.00;101481.13;10603898;27;20058;-80
2023/12/20 03:41:00;;;;;;;7.72;3.60;;;;;;;10.69;100.00;101486.31;10574115;27;20051;-81
2023/12/20 03:46:24;;;;;;;6.50;4.72;;;;;;;10.74;100.00;101490.84;10575131;27;20505;-82
2023/12/20 03:51:46;;;;;;;76.88;67.22;;;;;;;10.93;100.00;101497.50;10584616;27;20132;-81
2023/12/20 03:57:09;;;;;;;22.77;13.70;;;;;;;11.02;100.00;101503.03;10581511;27;20051;-81
2023/12/20 04:02:33;;;;;;;4.80;3.58;;;;;;;10.98;100.00;101494.97;10561547;27;20050;-82
2023/12/20 04:07:56;;;;;;;6.50;4.55;;;;;;;10.77;100.00;101497.94;10572972;27;20040;-82
2023/12/20 04:13:20;;;;;;;3.53;2.60;;;;;;;10.59;100.00;101508.00;10598000;27;20043;-82
2023/12/20 04:18:44;;;;;;;6.63;2.80;;;;;;;10.46;100.00;101500.59;10575221;27;20050;-81
2023/12/20 04:24:08;;;;;;;7.35;3.05;;;;;;;10.36;100.00;101504.75;10586604;27;20058;-81
2023/12/20 04:29:30;;;;;;;5.05;3.00;;;;;;;10.33;100.00;101508.19;10582758;27;20067;-81
2023/12/20 04:34:54;;;;;;;7.68;2.67;;;;;;;10.45;100.00;101498.81;10584200;27;20057;-81
2023/12/20 04:40:16;;;;;;;5.93;3.00;;;;;;;10.77;100.00;101493.56;10567340;27;20051;-81
2023/12/20 04:45:39;;;;;;;10.23;3.38;;;;;;;11.14;100.00;101498.06;10599951;27;20043;-81
2023/12/20 04:51:03;;;;;;;6.25;2.70;;;;;;;11.31;100.00;101502.84;10554548;27;20150;-82
2023/12/20 04:56:26;;;;;;;10.38;5.03;;;;;;;11.37;100.00;101503.00;10585745;27;20054;-82
2023/12/20 05:01:49;;;;;;;8.20;3.90;;;;;;;11.42;100.00;101517.25;10559046;27;20049;-81
2023/12/20 05:07:13;;;;;;;15.05;7.80;;;;;;;11.44;100.00;101512.88;10558527;27;20050;-82
2023/12/20 05:12:35;;;;;;;38.05;24.75;;;;;;;11.38;100.00;101513.63;10575839;27;20039;-82
2023/12/20 05:17:58;;;;;;;44.03;30.90;;;;;;;11.49;100.00;101513.88;10556787;27;20047;-82
2023/12/20 05:23:22;;;;;;;33.47;26.38;;;;;;;11.51;100.00;101513.06;10593800;27;20568;-82
2023/12/20 05:28:44;;;;;;;48.28;36.90;;;;;;;11.38;100.00;101512.72;10600413;27;20047;-81
2023/12/20 05:34:08;;;;;;;38.00;26.13;;;;;;;11.33;100.00;101522.28;10568624;27;20047;-82
2023/12/20 05:39:32;;;;;;;34.78;25.80;;;;;;;11.13;100.00;101517.41;10564851;27;20044;-82
2023/12/20 05:44:54;;;;;;;31.45;25.05;;;;;;;11.22;100.00;101519.41;10565360;27;20500;-82
2023/12/20 05:50:17;;;;;;;39.13;28.52;;;;;;;11.02;100.00;101524.19;10582923;27;20043;-82
2023/12/20 05:55:43;;;;;;;27.25;21.55;;;;;;;11.07;100.00;101517.25;10595860;27;20044;-82
2023/12/20 06:01:07;;;;;;;19.02;11.13;;;;;;;11.12;100.00;101512.97;10592105;28;20035;-83
2023/12/20 06:06:31;;;;;;;25.25;18.95;;;;;;;11.21;100.00;101514.06;10575141;28;20483;-82
2023/12/20 06:11:55;;;;;;;58.97;42.67;;;;;;;11.13;100.00;101514.75;10570953;28;20054;-83
2023/12/20 06:17:17;;;;;;;39.13;29.02;;;;;;;11.44;100.00;101526.09;10567274;28;20050;-82
2023/12/20 06:22:39;;;;;;;55.78;40.70;;;;;;;14.04;100.00;101521.44;10572278;28;20043;-82
2023/12/20 06:28:04;;;;;;;47.08;36.33;;;;;;;17.09;100.00;101518.44;10571782;28;20056;-83
2023/12/20 06:33:26;;;;;;;26.17;21.35;;;;;;;19.02;100.00;101509.94;10585519;28;20039;-82
2023/12/20 06:38:58;;;;;;;7.97;4.95;;;;;;;20.36;100.00;101518.47;10575527;28;20052;-82
2023/12/20 06:44:22;;;;;;;4.78;3.08;;;;;;;21.76;99.32;101509.19;10570589;28;20044;-81
2023/12/20 06:49:46;;;;;;;6.03;4.25;;;;;;;22.59;91.46;101499.44;10593114;28;20054;-84
2023/12/20 06:55:12;;;;;;;12.57;7.28;;;;;;;23.03;89.09;101497.56;10591290;27;20062;-82
2023/12/20 07:00:36;;;;;;;11.60;6.60;;;;;;;23.67;85.19;101488.75;10587103;28;20111;-83
2023/12/20 07:06:03;;;;;;;13.05;7.50;;;;;;;24.62;75.76;101489.63;10584317;27;20082;-84
2023/12/20 07:11:26;;;;;;;8.73;4.80;;;;;;;25.45;69.38;101495.97;10604380;27;20043;-82
2023/12/20 07:16:53;;;;;;;4.82;3.20;;;;;;;25.47;68.46;101499.53;10560986;27;20047;-83
2023/12/20 07:22:16;;;;;;;6.90;4.00;;;;;;;25.38;71.01;101489.91;10568430;27;20048;-83
2023/12/20 07:27:39;;;;;;;6.10;3.88;;;;;;;26.14;66.89;101493.47;10552761;28;20056;-82
2023/12/20 07:33:05;;;;;;;17.98;11.90;;;;;;;28.14;52.43;101483.47;10551662;28;20351;-81
2023/12/20 07:38:27;;;;;;;7.53;5.75;;;;;;;29.26;47.01;101488.91;10595486;27;20053;-82
2023/12/20 07:43:54;;;;;;;11.15;7.15;;;;;;;29.68;44.75;101491.28;10586518;27;20051;-82
2023/12/20 07:49:18;;;;;;;90.60;59.57;;;;;;;30.06;42.29;101502.91;10561937;27;20044;-82
2023/12/20 07:54:42;;;;;;;48.70;32.83;;;;;;;29.15;43.27;101485.84;10587896;27;20291;-83
2023/12/20 08:00:08;;;;;;;33.53;28.85;;;;;;;30.99;39.90;101483.19;10591538;27;20043;-84
2023/12/20 08:05:33;;;;;;;15.27;13.38;;;;;;;31.71;37.55;101486.19;10605859;27;20051;-84
2023/12/20 08:10:57;;;;;;;18.65;16.75;;;;;;;30.47;39.42;101475.22;10606060;27;20104;-82
2023/12/20 08:16:20;;;;;;;16.77;15.18;;;;;;;30.81;38.01;101482.41;10574368;27;20058;-83
2023/12/20 08:21:47;;;;;;;19.70;16.20;;;;;;;29.80;38.42;101478.00;10592788;27;20061;-83
2023/12/20 08:27:10;;;;;;;8.68;5.53;;;;;;;29.79;38.18;101468.06;10601150;27;20051;-83
2023/12/20 08:32:34;;;;;;;4.47;1.90;;;;;;;27.74;36.92;101459.91;10587035;27;20073;-83
2023/12/20 08:37:59;;;;;;;5.88;5.10;;;;;;;27.73;37.15;101448.19;10600236;27;20043;-84
2023/12/20 08:43:24;;;;;;;3.95;2.95;;;;;;;28.12;34.47;101439.16;10606313;27;20106;-83
2023/12/20 08:48:50;;;;;;;3.50;3.20;;;;;;;28.14;35.47;101442.72;10602901;27;20089;-85
2023/12/20 08:54:14;;;;;;;5.47;3.10;;;;;;;28.41;34.14;101437.84;10556789;27;20047;-84
2023/12/20 08:59:37;;;;;;;3.38;1.52;;;;;;;27.25;34.91;101428.56;10605013;27;20046;-85
2023/12/20 09:05:00;;;;;;;5.90;2.20;;;;;;;28.53;33.83;101429.97;10591060;27;20054;-85
2023/12/20 09:10:27;;;;;;;15.20;7.57;;;;;;;27.48;33.40;101398.63;10594810;27;20052;-86
2023/12/20 09:15:49;;;;;;;3.38;1.30;;;;;;;27.45;33.81;101411.44;10592318;27;20085;-85
2023/12/20 09:21:12;;;;;;;3.45;1.77;;;;;;;27.03;34.73;101397.91;10584974;27;20469;-85
2023/12/20 09:26:39;;;;;;;3.90;1.70;;;;;;;27.19;34.08;101385.44;10582107;27;20047;-86
2023/12/20 09:32:02;;;;;;;6.10;4.80;;;;;;;27.13;34.93;101374.88;10609365;27;20050;-85
2023/12/20 09:37:27;;;;;;;9.52;4.20;;;;;;;26.95;34.36;101369.31;10577705;27;20043;-84
2023/12/20 09:42:58;;;;;;;4.90;3.40;;;;;;;23.77;38.57;101374.31;10603555;27;20080;-85
2023/12/20 09:48:22;;;;;;;8.48;5.82;;;;;;;25.84;36.64;101375.56;10582140;27;20051;-83
2023/12/20 09:53:46;;;;;;;8.88;5.05;;;;;;;24.33;38.54;101384.38;10574630;27;20421;-83
2023/12/20 09:59:13;;;;;;;15.13;7.10;;;;;;;24.43;38.88;101367.81;10585370;27;20047;-83
2023/12/20 10:04:38;;;;;;;8.57;6.72;;;;;;;27.11;35.75;101357.81;10592145;27;20445;-83
2023/12/20 10:10:00;;;;;;;2.17;1.20;;;;;;;27.66;33.20;101342.69;10591734;27;20072;-83
2023/12/20 10:15:24;;;;;;;10.18;6.45;;;;;;;24.94;37.57;101345.47;10596764;28;20050;-84
2023/12/20 10:20:47;;;;;;;5.43;2.45;;;;;;;23.77;38.84;101322.19;10580230;28;20043;-84
2023/12/20 10:26:09;;;;;;;3.70;3.00;;;;;;;26.51;35.87;101325.09;10582575;28;20048;-84
2023/12/20 10:31:35;;;;;;;6.85;1.60;;;;;;;27.99;33.24;101302.22;10572372;28;20036;-83
2023/12/20 10:36:57;;;;;;;2.22;1.65;;;;;;;27.43;33.77;101297.59;10573038;28;20059;-83
2023/12/20 10:42:23;;;;;;;4.63;3.25;;;;;;;27.58;33.03;101286.06;10579779;27;20050;-84
2023/12/20 10:47:48;;;;;;;5.72;1.73;;;;;;;27.35;33.46;101278.97;10589153;27;20129;-83
2023/12/20 10:53:12;;;;;;;2.92;1.17;;;;;;;26.37;34.80;101265.19;10580625;27;20051;-82
2023/12/20 10:58:37;;;;;;;4.28;1.65;;;;;;;26.67;34.46;101268.41;10601587;27;20059;-82
2023/12/20 11:04:05;;;;;;;4.13;2.50;;;;;;;25.89;34.72;101254.50;10583872;27;20557;-81
2023/12/20 11:09:34;;;;;;;5.20;1.75;;;;;;;26.73;34.39;101253.72;10593920;27;20050;-82
2023/12/20 11:15:00;;;;;;;5.53;1.80;;;;;;;28.21;32.46;101245.94;10600071;27;20084;-82
2023/12/20 11:20:25;;;;;;;3.78;1.40;;;;;;;25.31;35.40;101235.09;10577572;27;20035;-84
2023/12/20 11:25:50;;;;;;;3.20;1.30;;;;;;;24.26;37.96;101226.25;10591155;27;20043;-90
2023/12/20 11:31:15;;;;;;;7.60;4.78;;;;;;;23.62;39.07;101222.91;10573339;27;20766;-84
2023/12/20 11:36:40;;;;;;;2.20;1.50;;;;;;;23.10;39.83;101224.41;10606372;27;20047;-81
2023/12/20 11:42:07;;;;;;;9.93;8.93;;;;;;;23.16;40.27;101202.69;10574389;27;20052;-86
2023/12/20 11:47:33;;;;;;;4.85;2.53;;;;;;;23.78;39.41;101198.09;10604202;27;20100;-84
2023/12/20 11:53:19;;;;;;;2.67;1.23;;;;;;;23.44;40.51;101171.28;10580744;27;20055;-87
2023/12/20 11:58:53;;;;;;;5.10;1.40;;;;;;;23.10;41.34;101157.06;10606355;27;20141;-83
2023/12/20 12:04:17;;;;;;;9.75;7.18;;;;;;;23.23;40.95;101152.19;10603053;27;20055;-84
2023/12/20 12:09:41;;;;;;;4.03;2.60;;;;;;;23.62;40.17;101133.94;10584574;27;20497;-82
2023/12/20 12:15:05;;;;;;;5.03;2.03;;;;;;;23.43;39.95;101120.97;10597496;27;20047;-82
2023/12/20 12:20:31;;;;;;;3.22;1.80;;;;;;;23.90;39.34;101126.69;10602737;27;20047;-84
2023/12/20 12:25:56;;;;;;;4.65;2.35;;;;;;;24.04;39.16;101113.63;10588599;27;20047;-83
2023/12/20 12:31:19;;;;;;;4.50;1.33;;;;;;;23.58;39.24;101098.09;10590659;27;20079;-82
2023/12/20 12:36:41;;;;;;;2.88;1.67;;;;;;;22.65;41.12;101102.69;10604146;27;20047;-84
2023/12/20 12:42:06;;;;;;;2.83;1.50;;;;;;;21.90;43.13;101095.75;10604635;27;20051;-82
2023/12/20 12:47:28;;;;;;;4.65;1.90;;;;;;;21.50;44.71;101090.50;10588733;27;20104;-83
2023/12/20 12:52:51;;;;;;;3.15;1.48;;;;;;;21.28;45.99;101084.72;10587299;27;20043;-84
2023/12/20 12:58:15;;;;;;;4.72;1.90;;;;;;;21.13;46.85;101084.19;10562504;27;20047;-81
2023/12/20 13:03:38;;;;;;;2.55;1.60;;;;;;;21.04;46.21;101075.41;10598228;27;20049;-80
2023/12/20 13:09:00;;;;;;;3.28;1.60;;;;;;;20.96;46.88;101081.84;10580259;27;20055;-81
2023/12/20 13:14:25;;;;;;;4.07;2.25;;;;;;;20.85;47.90;101062.44;10574315;27;20141;-83
2023/12/20 13:19:47;;;;;;;4.70;1.77;;;;;;;20.89;48.05;101064.13;10597970;27;20053;-80
2023/12/20 13:25:10;;;;;;;4.35;2.33;;;;;;;20.77;47.84;101043.81;10602990;27;20054;-84
2023/12/20 13:30:34;;;;;;;3.72;1.95;;;;;;;20.44;51.80;101040.03;10585124;27;20053;-85
2023/12/20 13:35:58;;;;;;;3.40;1.58;;;;;;;19.64;72.56;101045.09;10580945;27;20430;-85
2023/12/20 13:41:20;;;;;;;2.92;1.92;;;;;;;19.30;83.12;101049.19;10597490;27;20042;-87
2023/12/20 13:46:45;;;;;;;3.83;1.90;;;;;;;19.15;87.19;101049.44;10591563;27;20473;-87
2023/12/20 13:52:08;;;;;;;6.30;1.85;;;;;;;19.08;89.37;101032.59;10583943;27;20040;-85
2023/12/20 13:57:31;;;;;;;5.93;1.95;;;;;;;19.03;90.34;101027.28;10591854;27;20046;-85
2023/12/20 14:02:56;;;;;;;8.73;4.75;;;;;;;18.93;92.99;101033.69;10587769;28;20047;-85
2023/12/20 14:08:19;;;;;;;8.52;2.05;;;;;;;18.79;93.94;101022.28;10588508;28;20041;-86
2023/12/20 14:13:43;;;;;;;3.83;2.05;;;;;;;18.58;95.93;101014.53;10576041;28;20083;-88
2023/12/20 14:19:09;;;;;;;14.02;7.72;;;;;;;18.39;98.88;101024.56;10582179;27;20043;-88
2023/12/20 14:24:32;;;;;;;5.35;3.22;;;;;;;18.27;99.08;101030.06;10572067;27;20055;-89
2023/12/20 14:29:54;;;;;;;7.40;2.88;;;;;;;18.23;98.58;101023.00;10580154;27;20474;-86
2023/12/20 14:35:21;;;;;;;9.38;3.50;;;;;;;18.15;99.46;101011.50;10587555;27;20198;-86
2023/12/20 14:40:45;;;;;;;8.68;2.72;;;;;;;18.16;97.47;100998.13;10590683;27;20051;-84
2023/12/20 14:46:07;;;;;;;6.82;2.60;;;;;;;18.05;97.21;101001.81;10593765;27;20451;-83
2023/12/20 14:51:31;;;;;;;6.13;2.70;;;;;;;17.86;99.40;101017.13;10542240;28;20051;-91
2023/12/20 14:56:56;;;;;;;7.47;2.40;;;;;;;17.81;98.60;101041.22;10580710;27;20055;-86
2023/12/20 15:02:20;;;;;;;3.72;1.90;;;;;;;18.00;97.38;101012.53;10565743;28;20082;-91
2023/12/20 15:07:44;;;;;;;4.20;1.70;;;;;;;18.05;97.56;100996.50;10556033;28;20052;-88
2023/12/20 15:13:07;;;;;;;4.15;2.10;;;;;;;18.10;97.02;100981.28;10552652;28;20396;-88
2023/12/20 15:18:32;;;;;;;3.92;1.70;;;;;;;18.11;95.91;100970.59;10573339;28;20103;-90
2023/12/20 15:24:05;;;;;;;4.25;2.05;;;;;;;18.13;95.45;100965.19;10579737;28;20052;-84
2023/12/20 15:29:29;;;;;;;4.90;2.15;;;;;;;18.18;96.02;100977.59;10524027;28;20048;-84
2023/12/20 15:34:53;;;;;;;4.72;2.22;;;;;;;18.21;96.16;100972.22;10566159;28;20048;-83
2023/12/20 15:40:17;;;;;;;5.63;2.60;;;;;;;18.27;95.77;100981.94;10590350;27;20047;-85
2023/12/20 15:45:40;;;;;;;3.88;1.77;;;;;;;18.47;93.12;100987.03;10559715;28;20055;-87
2023/12/20 15:51:06;;;;;;;8.77;4.43;;;;;;;18.63;91.28;100984.19;10581910;27;20076;-87
2023/12/20 15:56:31;;;;;;;3.90;2.20;;;;;;;18.65;91.91;100992.16;10578197;27;20515;-85
2023/12/20 16:01:54;;;;;;;4.07;1.67;;;;;;;18.48;93.28;100991.50;10582643;27;20039;-87
2023/12/20 16:07:19;;;;;;;2.08;1.13;;;;;;;18.70;91.94;100990.34;10598872;27;20058;-84
2023/12/20 16:12:44;;;;;;;8.05;3.42;;;;;;;18.74;90.65;101008.09;10600494;27;20047;-84
2023/12/20 16:18:09;;;;;;;8.38;5.25;;;;;;;18.68;91.55;101009.06;10572990;27;20076;-87
2023/12/20 16:23:31;;;;;;;6.40;3.42;;;;;;;18.74;92.12;101008.09;10587407;27;20047;-87
2023/12/20 16:28:56;;;;;;;13.45;9.35;;;;;;;18.71;92.67;101005.44;10592976;27;20062;-89
2023/12/20 16:34:19;;;;;;;4.15;2.75;;;;;;;18.72;93.79;101012.56;10582330;27;20053;-89
2023/12/20 16:39:42;;;;;;;2.95;1.85;;;;;;;18.52;95.92;101010.13;10571791;27;20039;-91
2023/12/20 16:45:07;;;;;;;5.65;2.80;;;;;;;18.52;97.16;101003.91;10576492;27;20051;-88
2023/12/20 16:50:30;;;;;;;5.03;2.42;;;;;;;18.31;99.34;100979.22;10590458;27;20047;-87
2023/12/20 16:55:52;;;;;;;10.63;4.22;;;;;;;18.42;99.13;100979.09;10583591;27;20039;-79
2023/12/20 17:01:16;;;;;;;3.67;2.10;;;;;;;18.32;100.00;100980.97;10603470;27;20492;-87
2023/12/20 17:06:39;;;;;;;5.18;2.40;;;;;;;18.34;100.00;100975.63;10564113;27;20051;-89
2023/12/20 17:12:02;;;;;;;3.92;2.60;;;;;;;18.43;100.00;100978.19;10597447;27;20096;-91
2023/12/20 17:17:29;;;;;;;5.75;2.95;;;;;;;18.44;100.00;100987.97;10574005;27;20051;-93
2023/12/20 17:22:54;;;;;;;2.65;2.00;;;;;;;18.30;100.00;100968.56;10603626;27;20045;-87
2023/12/20 17:28:22;;;;;;;7.60;2.40;;;;;;;18.32;100.00;100972.06;10598676;27;20051;-87
2023/12/20 17:33:47;;;;;;;5.97;3.00;;;;;;;18.48;100.00;100965.63;10594855;27;20046;-88
2023/12/20 17:39:10;;;;;;;5.32;2.28;;;;;;;18.37;100.00;100948.88;10603001;27;20096;-89
2023/12/20 17:44:32;;;;;;;4.15;2.17;;;;;;;18.30;100.00;100948.06;10600760;27;20043;-86
2023/12/20 17:50:01;;;;;;;3.22;2.40;;;;;;;18.41;100.00;100947.91;10578976;27;20056;-92
2023/12/20 17:55:24;;;;;;;4.07;2.22;;;;;;;18.45;96.50;100957.66;10593948;27;20139;-88
2023/12/20 18:00:49;;;;;;;5.25;1.58;;;;;;;18.57;93.90;100953.97;10601288;27;20070;-92
2023/12/20 18:06:16;;;;;;;3.80;2.45;;;;;;;18.47;92.09;100941.59;10598715;28;20688;-86
2023/12/20 18:11:39;;;;;;;3.88;2.13;;;;;;;18.52;93.92;100931.72;10583293;28;20043;-90
2023/12/20 18:17:02;;;;;;;6.05;3.03;;;;;;;18.37;96.38;100930.16;10575929;28;20298;-83
2023/12/20 18:22:27;;;;;;;6.70;2.35;;;;;;;18.42;96.93;100933.66;10578214;28;20126;-86
2023/12/20 18:27:49;;;;;;;4.85;2.70;;;;;;;18.40;100.00;100937.22;10573427;28;20055;-86
2023/12/20 18:33:12;;;;;;;6.78;2.65;;;;;;;18.37;100.00;100947.97;10604196;28;20047;-85
2023/12/20 18:38:40;;;;;;;5.35;2.63;;;;;;;18.19;100.00;100935.72;10588901;28;20047;-85
2023/12/20 18:44:03;;;;;;;6.32;2.97;;;;;;;17.92;100.00;100956.53;10586693;28;20516;-86
2023/12/20 18:55:26;;;;;;;5.28;4.28;;;;;;;17.94;100.00;100948.50;10598149;28;20069;-90
2023/12/20 19:00:49;;;;;;;6.05;2.83;;;;;;;17.99;100.00;100951.09;10593930;27;20041;-85
2023/12/20 19:06:16;;;;;;;3.13;2.45;;;;;;;18.19;100.00;100954.44;10607566;27;20110;-86
2023/12/20 19:11:40;;;;;;;34.70;27.33;;;;;;;18.22;100.00;100946.38;10588688;27;20044;-86
2023/12/20 19:17:04;;;;;;;9.93;6.60;;;;;;;18.11;100.00;100942.97;10575841;27;20104;-85
2023/12/20 19:22:31;;;;;;;6.53;5.15;;;;;;;18.12;100.00;100934.03;10605139;27;20058;-85
2023/12/20 19:27:56;;;;;;;4.32;3.92;;;;;;;18.10;100.00;100931.41;10606210;27;20062;-85
2023/12/20 19:33:20;;;;;;;67.50;36.38;;;;;;;18.14;100.00;100924.22;10586295;27;20433;-84
2023/12/20 19:38:43;;;;;;;18.17;11.93;;;;;;;18.00;100.00;100913.69;10608274;27;20103;-82
2023/12/20 19:44:08;;;;;;;17.00;9.48;;;;;;;18.13;100.00;100920.66;10594252;27;20070;-83
2023/12/20 19:49:30;;;;;;;7.75;3.67;;;;;;;18.10;100.00;100910.03;10594144;27;20065;-83
2023/12/20 19:54:53;;;;;;;13.95;9.80;;;;;;;18.01;100.00;100887.88;10589061;27;20049;-84
2023/12/20 20:00:17;;;;;;;15.68;13.98;;;;;;;17.95;100.00;100888.84;10608229;27;20054;-81
2023/12/20 20:05:39;;;;;;;13.80;9.68;;;;;;;17.97;100.00;100880.81;10586110;27;20043;-82
2023/12/20 20:11:02;;;;;;;18.65;16.35;;;;;;;17.99;100.00;100860.28;10607065;27;20092;-85
2023/12/20 20:16:29;;;;;;;20.95;15.10;;;;;;;17.96;100.00;100850.53;10574644;27;20123;-83
2023/12/20 20:21:51;;;;;;;15.13;13.20;;;;;;;18.00;100.00;100843.34;10588865;27;20051;-81
2023/12/20 20:27:16;;;;;;;10.70;8.57;;;;;;;18.01;100.00;100843.34;10604272;27;20043;-83
2023/12/20 20:32:40;;;;;;;14.38;10.38;;;;;;;17.97;100.00;100835.41;10584682;27;20055;-85
2023/12/20 20:38:04;;;;;;;25.70;17.23;;;;;;;17.72;100.00;100825.00;10586863;27;20108;-85
2023/12/20 20:43:27;;;;;;;17.05;11.75;;;;;;;17.87;100.00;100834.63;10584546;27;20062;-82
2023/12/20 20:48:51;;;;;;;50.65;33.83;;;;;;;17.95;100.00;100826.50;10569589;27;20404;-85
2023/12/20 20:54:13;;;;;;;21.48;16.80;;;;;;;18.03;100.00;100833.53;10579614;27;20052;-93
2023/12/20 20:59:38;;;;;;;10.63;7.00;;;;;;;17.72;100.00;100811.66;10588998;27;20043;-86
2023/12/20 21:05:04;;;;;;;20.98;6.40;;;;;;;17.14;100.00;100824.75;10589022;27;20043;-79
2023/12/20 21:10:26;;;;;;;13.57;7.45;;;;;;;16.60;100.00;100818.19;10586354;27;20140;-77
2023/12/20 21:15:49;;;;;;;9.98;4.78;;;;;;;16.19;100.00;100811.34;10589141;27;20043;-79
2023/12/20 21:21:13;;;;;;;7.85;4.00;;;;;;;15.88;100.00;100804.44;10576541;27;20055;-81
2023/12/20 21:26:35;;;;;;;24.17;13.38;;;;;;;16.00;100.00;100795.47;10589360;27;20070;-80
2023/12/20 21:31:58;;;;;;;7.05;4.03;;;;;;;16.11;100.00;100796.28;10595706;27;20443;-81
2023/12/20 21:37:22;;;;;;;19.35;10.95;;;;;;;16.21;100.00;100792.69;10568631;27;20078;-82
2023/12/20 21:42:45;;;;;;;16.73;10.20;;;;;;;16.17;100.00;100786.47;10577779;27;20075;-82
2023/12/20 21:48:08;;;;;;;32.05;21.23;;;;;;;16.25;100.00;100763.34;10586226;27;20051;-81
2023/12/20 21:53:33;;;;;;;21.35;14.25;;;;;;;16.25;100.00;100752.69;10585176;27;20490;-83
2023/12/20 21:58:55;;;;;;;18.20;13.50;;;;;;;16.25;100.00;100730.50;10580203;28;20116;-84
2023/12/20 22:04:18;;;;;;;5.88;3.28;;;;;;;15.92;100.00;100724.53;10589511;27;20047;-87
2023/12/20 22:09:42;;;;;;;4.72;2.58;;;;;;;15.78;100.00;100714.84;10569045;28;20054;-85
2023/12/20 22:15:09;;;;;;;2.42;1.70;;;;;;;15.67;100.00;100693.66;10590862;28;20383;-85
2023/12/20 22:20:31;;;;;;;2.10;1.33;;;;;;;15.62;100.00;100678.59;10569069;28;20055;-86
2023/12/20 22:25:58;;;;;;;2.53;2.30;;;;;;;15.57;100.00;100659.97;10560712;28;20055;-86
2023/12/20 22:31:20;;;;;;;4.88;2.38;;;;;;;15.53;100.00;100653.81;10561716;28;20496;-85
2023/12/20 22:36:43;;;;;;;3.88;2.80;;;;;;;15.54;100.00;100618.34;10559621;27;20134;-83
2023/12/20 22:42:09;;;;;;;3.13;2.83;;;;;;;15.82;100.00;100623.41;10668476;27;20050;-85
2023/12/20 22:47:32;;;;;;;4.25;3.40;;;;;;;15.91;100.00;100589.63;10618080;27;20108;-83
2023/12/20 22:52:55;;;;;;;7.53;4.03;;;;;;;15.90;100.00;100561.25;10567996;28;20051;-85
2023/12/20 22:58:19;;;;;;;6.57;5.20;;;;;;;16.07;100.00;100571.75;10568155;28;20828;-82
2023/12/20 23:03:43;;;;;;;6.50;3.35;;;;;;;16.12;100.00;100545.94;10581346;28;20054;-84
2023/12/20 23:09:07;;;;;;;6.43;3.95;;;;;;;16.12;100.00;100527.31;10581360;28;20048;-82
2023/12/20 23:14:31;;;;;;;5.65;3.67;;;;;;;16.17;100.00;100548.53;10573204;28;20047;-82
2023/12/20 23:19:57;;;;;;;4.97;2.88;;;;;;;16.47;100.00;100558.00;10576988;28;20105;-83
2023/12/20 23:25:19;;;;;;;5.72;2.70;;;;;;;16.51;100.00;100554.38;10538527;28;20044;-81
2023/12/20 23:30:45;;;;;;;8.63;3.35;;;;;;;16.59;100.00;100549.84;10572641;28;20040;-81
2023/12/20 23:36:08;;;;;;;9.00;4.95;;;;;;;16.68;100.00;100525.75;10581413;28;20051;-81
2023/12/20 23:41:30;;;;;;;7.07;4.80;;;;;;;16.64;100.00;100524.94;10568431;28;20047;-81
2023/12/20 23:46:55;;;;;;;8.50;5.00;;;;;;;16.72;100.00;100536.38;10579821;28;20456;-81
2023/12/20 23:52:18;;;;;;;14.40;5.15;;;;;;;16.86;100.00;100536.19;10573391;28;20055;-81
2023/12/20 23:57:41;;;;;;;6.25;2.65;;;;;;;17.17;100.00;100527.75;10566090;28;20134;-82
